Time;durP1;ratioP1;P1;durP2;ratioP2;P2;SDS_P1;SDS_P2;PMS_P1;PMS_P2;Temp;Humidity;BMP_temperature;BMP_pressure;BME280_temperature;BME280_humidity;BME280_pressure;Samples;Min_cycle;Max_cycle;Signal;HPM_P1;HPM_P2
2022/01/04 00:00:58;;;;;;;;;;;;;;;7.86;82.34;99068.41;5006160;28;989;-89
2022/01/04 00:03:23;;;;;;;;;;;;;;;7.84;82.25;99071.41;5004671;28;1461;-90
2022/01/04 00:05:48;;;;;;;;;;;;;;;7.79;82.26;99057.09;4995113;28;1906;-89
2022/01/04 00:08:13;;;;;;;;;;;;;;;7.81;82.31;99058.41;4999125;28;1283;-90
2022/01/04 00:10:39;;;;;;;;;;;;;;;7.83;82.44;99064.34;4998208;28;1200;-90
2022/01/04 00:13:23;;;;;;;;;;;;;;;7.75;82.40;99058.75;4998393;28;1322;-90
2022/01/04 00:15:49;;;;;;;;;;;;;;;7.77;82.43;99051.13;5023871;28;1410;-90
2022/01/04 00:18:16;;;;;;;;;;;;;;;7.81;82.50;99042.06;5035303;28;1797;-90
2022/01/04 00:20:41;;;;;;;;;;;;;;;7.79;82.44;99047.00;5018022;28;1333;-90
2022/01/04 00:23:06;;;;;;;;;;;;;;;7.77;82.53;99041.03;5017665;28;1464;-90
2022/01/04 00:25:31;;;;;;;;;;;;;;;7.70;82.34;99032.44;5017575;28;1910;-89
2022/01/04 00:27:57;;;;;;;;;;;;;;;7.75;82.71;99034.25;5017558;28;1284;-90
2022/01/04 00:30:24;;;;;;;;;;;;;;;7.71;82.78;99036.78;5017119;28;1214;-89
2022/01/04 00:32:49;;;;;;;;;;;;;;;7.70;82.69;99037.88;5017137;28;1192;-90
2022/01/04 00:35:14;;;;;;;;;;;;;;;7.75;82.61;99029.63;5017142;28;1331;-90
2022/01/04 00:37:39;;;;;;;;;;;;;;;7.77;82.62;99023.88;5016659;28;1278;-89
2022/01/04 00:40:05;;;;;;;;;;;;;;;7.83;82.72;99014.50;5016765;28;1283;-90
2022/01/04 00:42:30;;;;;;;;;;;;;;;7.88;82.54;99017.16;5016642;28;1397;-90
2022/01/04 00:44:55;;;;;;;;;;;;;;;7.86;82.43;99006.56;5016603;28;1906;-89
2022/01/04 00:47:27;;;;;;;;;;;;;;;7.90;82.60;99009.50;5016630;28;1198;-90
2022/01/04 00:49:52;;;;;;;;;;;;;;;7.91;82.65;99003.72;5016551;28;1302;-90
2022/01/04 00:52:17;;;;;;;;;;;;;;;7.93;82.61;99003.44;5016485;28;1208;-90
2022/01/04 00:54:42;;;;;;;;;;;;;;;7.91;82.50;98995.56;5016589;28;1286;-90
2022/01/04 00:57:07;;;;;;;;;;;;;;;7.85;82.58;98985.88;5016324;28;1255;-90
2022/01/04 00:59:33;;;;;;;;;;;;;;;7.87;82.88;98989.09;5017699;28;918;-90
2022/01/04 01:01:58;;;;;;;;;;;;;;;7.88;82.79;98981.75;5016267;28;989;-90
2022/01/04 01:04:23;;;;;;;;;;;;;;;7.84;83.13;98978.81;5016542;28;1944;-90
2022/01/04 01:06:48;;;;;;;;;;;;;;;7.85;83.02;98980.41;5015912;28;1218;-90
2022/01/04 01:09:13;;;;;;;;;;;;;;;7.83;83.16;98985.34;5016466;28;1072;-90
2022/01/04 01:11:39;;;;;;;;;;;;;;;7.76;83.53;98974.03;5015966;28;1315;-89
2022/01/04 01:14:04;;;;;;;;;;;;;;;7.79;83.39;98972.66;5015981;28;1029;-90
2022/01/04 01:16:29;;;;;;;;;;;;;;;7.75;83.79;98968.88;5014962;28;1201;-90
2022/01/04 01:18:54;;;;;;;;;;;;;;;7.74;83.55;98959.13;5015549;28;1048;-90
2022/01/04 01:21:19;;;;;;;;;;;;;;;7.77;83.63;98955.78;5015860;28;1151;-90
2022/01/04 01:23:44;;;;;;;;;;;;;;;7.80;83.56;98956.00;5015773;28;1157;-91
2022/01/04 01:26:10;;;;;;;;;;;;;;;7.80;83.61;98952.47;5016156;28;1979;-90
2022/01/04 01:28:35;;;;;;;;;;;;;;;7.81;83.79;98954.91;5016071;28;1142;-90
2022/01/04 01:31:01;;;;;;;;;;;;;;;7.77;83.56;98947.63;5016283;28;1338;-90
2022/01/04 01:33:27;;;;;;;;;;;;;;;7.76;83.81;98956.88;5015719;28;1410;-89
2022/01/04 01:35:53;;;;;;;;;;;;;;;7.79;83.94;98954.38;5015910;28;1437;-89
2022/01/04 01:38:19;;;;;;;;;;;;;;;7.79;83.97;98954.38;5015898;28;1295;-89
2022/01/04 01:40:45;;;;;;;;;;;;;;;7.72;84.25;98950.44;5015812;28;1215;-89
2022/01/04 01:43:10;;;;;;;;;;;;;;;7.73;84.35;98950.16;5017241;28;862;-89
2022/01/04 01:45:35;;;;;;;;;;;;;;;7.72;84.67;98942.28;5015574;28;1959;-90
2022/01/04 01:48:01;;;;;;;;;;;;;;;7.70;84.71;98939.03;5015209;28;1268;-90
2022/01/04 01:50:26;;;;;;;;;;;;;;;7.73;84.97;98935.72;5015116;28;1208;-90
2022/01/04 01:52:52;;;;;;;;;;;;;;;7.74;84.95;98935.41;5014913;28;1141;-90
2022/01/04 01:55:18;;;;;;;;;;;;;;;7.72;85.15;98924.03;5014846;28;1197;-90
2022/01/04 01:57:43;;;;;;;;;;;;;;;7.71;85.04;98913.41;5015031;28;1306;-90
2022/01/04 02:00:10;;;;;;;;;;;;;;;7.69;85.16;98911.00;5014832;28;1200;-90
2022/01/04 02:02:35;;;;;;;;;;;;;;;7.67;85.30;98907.75;5015188;28;1188;-90
2022/01/04 02:05:00;;;;;;;;;;;;;;;7.62;85.47;98901.59;5015264;28;1906;-90
2022/01/04 02:07:26;;;;;;;;;;;;;;;7.58;85.61;98896.75;5015048;28;1208;-90
2022/01/04 02:10:09;;;;;;;;;;;;;;;7.63;85.47;98893.13;5015035;28;1381;-90
2022/01/04 02:12:37;;;;;;;;;;;;;;;7.61;85.58;98895.34;5015629;28;1330;-90
2022/01/04 02:15:04;;;;;;;;;;;;;;;7.56;85.80;98901.72;5014941;28;1191;-90
2022/01/04 02:17:29;;;;;;;;;;;;;;;7.59;85.66;98898.38;5014861;28;1272;-90
2022/01/04 02:19:55;;;;;;;;;;;;;;;7.62;85.84;98901.59;5015061;28;1299;-89
2022/01/04 02:22:20;;;;;;;;;;;;;;;7.59;85.84;98887.47;5015140;28;1275;-90
2022/01/04 02:24:45;;;;;;;;;;;;;;;7.46;85.91;98882.00;5014841;28;1898;-89
2022/01/04 02:27:11;;;;;;;;;;;;;;;7.52;86.07;98872.63;5014706;28;1150;-89
2022/01/04 02:29:37;;;;;;;;;;;;;;;7.54;85.87;98865.78;5014141;28;1192;-89
2022/01/04 02:32:02;;;;;;;;;;;;;;;7.57;85.92;98862.44;5014640;28;1197;-90
2022/01/04 02:34:27;;;;;;;;;;;;;;;7.59;85.89;98856.72;5015038;28;1211;-89
2022/01/04 02:36:52;;;;;;;;;;;;;;;7.58;85.92;98850.47;5014958;28;1217;-90
2022/01/04 02:39:17;;;;;;;;;;;;;;;7.57;86.03;98851.56;5014622;28;1157;-89
2022/01/04 02:41:42;;;;;;;;;;;;;;;7.56;85.91;98854.59;5014845;28;1330;-89
2022/01/04 02:44:07;;;;;;;;;;;;;;;7.58;86.09;98841.47;5014805;28;1901;-89
2022/01/04 02:46:33;;;;;;;;;;;;;;;7.57;86.07;98839.91;5014477;28;1278;-90
2022/01/04 02:48:58;;;;;;;;;;;;;;;7.53;85.63;98834.22;5014494;28;1283;-89
2022/01/04 02:51:23;;;;;;;;;;;;;;;7.49;86.34;98833.19;5014207;28;1262;-89
2022/01/04 02:53:48;;;;;;;;;;;;;;;7.45;86.42;98826.75;5014208;28;1418;-89
2022/01/04 02:56:14;;;;;;;;;;;;;;;7.42;86.30;98819.19;5014423;28;1176;-89
2022/01/04 02:58:39;;;;;;;;;;;;;;;7.50;86.41;98820.41;5014431;28;1404;-89
2022/01/04 03:01:04;;;;;;;;;;;;;;;7.53;86.88;98825.25;5014459;28;1056;-89
2022/01/04 03:03:30;;;;;;;;;;;;;;;7.53;86.35;98827.97;5014489;28;1212;-90
2022/01/04 03:05:55;;;;;;;;;;;;;;;7.48;86.09;98822.63;5014173;28;1959;-90
2022/01/04 03:08:21;;;;;;;;;;;;;;;7.37;86.55;98816.56;5014104;28;1220;-90
2022/01/04 03:10:55;;;;;;;;;;;;;;;7.43;86.57;98815.34;5014050;28;1295;-90
2022/01/04 03:13:20;;;;;;;;;;;;;;;7.50;86.74;98804.06;5015706;28;957;-90
2022/01/04 03:15:46;;;;;;;;;;;;;;;7.48;86.40;98801.66;5014048;28;1302;-90
2022/01/04 03:18:11;;;;;;;;;;;;;;;7.47;86.27;98799.25;5014031;28;1368;-89
2022/01/04 03:20:37;;;;;;;;;;;;;;;7.39;86.74;98797.22;5014598;28;1176;-89
2022/01/04 03:23:02;;;;;;;;;;;;;;;7.32;86.67;98792.16;5014271;28;1243;-90
2022/01/04 03:25:28;;;;;;;;;;;;;;;7.37;86.81;98789.34;5013845;28;1959;-90
2022/01/04 03:27:53;;;;;;;;;;;;;;;7.46;87.03;98793.00;5014078;28;1307;-90
2022/01/04 03:30:18;;;;;;;;;;;;;;;7.47;87.05;98788.34;5013842;28;1272;-89
2022/01/04 03:35:46;;;;;;;;;;;;;;;7.37;86.87;98774.94;5015043;28;602;-90
2022/01/04 03:38:11;;;;;;;;;;;;;;;7.31;87.08;98771.50;5013679;28;1252;-90
2022/01/04 03:40:36;;;;;;;;;;;;;;;7.31;87.02;98766.06;5013842;28;1533;-90
2022/01/04 03:43:02;;;;;;;;;;;;;;;7.20;86.94;98767.34;5013938;28;1192;-89
2022/01/04 03:45:27;;;;;;;;;;;;;;;7.19;87.11;98755.66;5013877;28;1867;-90
2022/01/04 03:47:55;;;;;;;;;;;;;;;7.21;86.88;98753.47;5203490;23;1817;-89
2022/01/04 03:50:21;;;;;;;;;;;;;;;7.03;87.33;98738.00;4974676;28;1394;-89
2022/01/04 03:52:46;;;;;;;;;;;;;;;6.99;87.20;98739.72;4974714;28;1312;-89
2022/01/04 03:55:12;;;;;;;;;;;;;;;7.07;87.41;98735.47;4974612;28;1327;-89
2022/01/04 03:57:37;;;;;;;;;;;;;;;7.15;87.30;98726.63;4975775;28;1320;-89
2022/01/04 04:00:08;;;;;;;;;;;;;;;7.17;87.30;98727.13;4974728;28;1332;-89
2022/01/04 04:02:33;;;;;;;;;;;;;;;7.21;87.36;98717.28;4974829;28;1335;-89
2022/01/04 04:04:58;;;;;;;;;;;;;;;7.22;87.08;98725.16;4974946;28;1902;-90
2022/01/04 04:07:23;;;;;;;;;;;;;;;7.13;87.58;98721.50;5000887;23;2149;-89
2022/01/04 04:09:48;;;;;;;;;;;;;;;7.07;87.54;98717.25;5012473;28;926;-86
2022/01/04 04:12:14;;;;;;;;;;;;;;;7.02;87.36;98725.50;5012969;28;1169;-86
2022/01/04 04:14:39;;;;;;;;;;;;;;;6.99;87.79;98711.69;5012387;28;1392;-86
2022/01/04 04:17:04;;;;;;;;;;;;;;;7.06;87.31;98710.19;5012685;28;1299;-86
2022/01/04 04:19:29;;;;;;;;;;;;;;;7.08;87.87;98705.25;5012228;28;1784;-86
2022/01/04 04:21:55;;;;;;;;;;;;;;;7.09;87.83;98708.78;5012575;28;1057;-87
2022/01/04 04:24:20;;;;;;;;;;;;;;;7.08;87.42;98688.94;5012959;28;1910;-87
2022/01/04 04:26:45;;;;;;;;;;;;;;;7.09;87.44;98684.31;5012455;28;1210;-86
2022/01/04 04:29:10;;;;;;;;;;;;;;;7.10;87.17;98667.69;5012653;28;899;-86
2022/01/04 04:31:35;;;;;;;;;;;;;;;7.04;87.23;98666.19;5012507;28;1221;-86
2022/01/04 04:34:00;;;;;;;;;;;;;;;7.10;87.30;98667.69;5012624;28;1205;-85
2022/01/04 04:36:27;;;;;;;;;;;;;;;7.11;87.22;98666.59;5012724;28;1025;-86
2022/01/04 04:38:52;;;;;;;;;;;;;;;7.09;87.44;98663.34;5012304;28;1446;-86
2022/01/04 04:41:17;;;;;;;;;;;;;;;7.11;87.10;98657.63;5012406;28;830;-86
2022/01/04 04:43:42;;;;;;;;;;;;;;;7.11;87.62;98642.09;5012499;28;1052;-86
2022/01/04 04:46:08;;;;;;;;;;;;;;;7.11;87.70;98641.28;5013735;28;1967;-86
2022/01/04 04:48:33;;;;;;;;;;;;;;;7.17;86.99;98642.78;5012534;28;1291;-86
2022/01/04 04:50:58;;;;;;;;;;;;;;;7.17;87.05;98645.50;5013561;28;890;-86
2022/01/04 04:53:23;;;;;;;;;;;;;;;7.17;86.81;98635.44;5002602;28;1786;-88
2022/01/04 04:55:48;;;;;;;;;;;;;;;7.26;87.21;98635.53;4996002;28;1209;-86
2022/01/04 04:58:13;;;;;;;;;;;;;;;7.26;86.67;98634.72;4995960;28;1197;-87
2022/01/04 05:00:39;;;;;;;;;;;;;;;7.23;86.64;98620.59;4996163;28;1280;-86
2022/01/04 05:03:04;;;;;;;;;;;;;;;7.29;86.53;98613.16;4996253;28;1313;-86
2022/01/04 05:05:29;;;;;;;;;;;;;;;7.31;86.80;98608.22;4997236;28;1901;-86
2022/01/04 05:07:54;;;;;;;;;;;;;;;7.30;86.35;98611.25;4995986;28;1178;-86
2022/01/04 05:10:19;;;;;;;;;;;;;;;7.34;86.75;98602.16;4996081;28;1159;-86
2022/01/04 05:12:44;;;;;;;;;;;;;;;7.32;86.42;98596.19;4996261;28;1219;-86
2022/01/04 05:15:10;;;;;;;;;;;;;;;7.25;86.60;98587.66;4996611;28;902;-87
2022/01/04 05:17:35;;;;;;;;;;;;;;;7.22;86.27;98575.50;4996162;28;1264;-86
2022/01/04 05:20:00;;;;;;;;;;;;;;;7.25;86.10;98568.59;4996458;28;1279;-87
2022/01/04 05:22:25;;;;;;;;;;;;;;;7.26;86.40;98563.97;5001836;28;891;-89
2022/01/04 05:24:50;;;;;;;;;;;;;;;7.29;86.01;98563.38;5021623;28;1934;-87
2022/01/04 05:27:16;;;;;;;;;;;;;;;7.31;86.33;98564.69;5020924;28;1300;-89
2022/01/04 05:29:41;;;;;;;;;;;;;;;7.28;86.08;98557.13;5018020;28;1322;-86
2022/01/04 05:32:07;;;;;;;;;;;;;;;7.20;86.31;98555.94;4997185;28;936;-87
2022/01/04 05:34:32;;;;;;;;;;;;;;;7.21;86.06;98556.75;4995592;28;1212;-86
2022/01/04 05:36:57;;;;;;;;;;;;;;;7.25;85.66;98546.03;4995389;28;1231;-86
2022/01/04 05:39:27;;;;;;;;;;;;;;;7.27;86.14;98543.81;5004254;28;1786;-87
2022/01/04 05:41:52;;;;;;;;;;;;;;;7.25;85.58;98548.75;5014947;28;1165;-88
2022/01/04 05:44:17;;;;;;;;;;;;;;;7.25;86.14;98535.16;5015997;28;1902;-88
2022/01/04 05:46:43;;;;;;;;;;;;;;;7.21;85.94;98527.63;5034624;28;1328;-88
2022/01/04 05:49:09;;;;;;;;;;;;;;;7.24;85.78;98520.72;5034411;28;1322;-88
2022/01/04 05:51:34;;;;;;;;;;;;;;;7.21;86.22;98518.66;5034717;28;1255;-89
2022/01/04 05:53:59;;;;;;;;;;;;;;;7.20;86.30;98526.00;5034558;28;1208;-89
2022/01/04 05:56:24;;;;;;;;;;;;;;;7.22;85.98;98525.69;5034789;28;1330;-88
2022/01/04 05:58:49;;;;;;;;;;;;;;;7.25;85.88;98526.97;5035694;28;1268;-86
2022/01/04 06:01:14;;;;;;;;;;;;;;;7.29;85.60;98523.34;5034381;28;1187;-86
2022/01/04 06:03:40;;;;;;;;;;;;;;;7.30;85.30;98529.59;5018107;28;1945;-86
2022/01/04 06:06:05;;;;;;;;;;;;;;;7.31;84.95;98525.78;5014572;28;1906;-85
2022/01/04 06:08:34;;;;;;;;;;;;;;;7.32;85.02;98521.91;5014451;28;1188;-84
2022/01/04 06:11:00;;;;;;;;;;;;;;;7.26;85.13;98531.31;5015076;28;1312;-85
2022/01/04 06:16:09;;;;;;;;;;;;;;;7.32;85.26;98539.06;5017263;28;685;-84
2022/01/04 06:18:34;;;;;;;;;;;;;;;7.28;85.04;98542.72;5009575;28;1451;-85
2022/01/04 06:20:59;;;;;;;;;;;;;;;7.31;84.73;98542.91;4997311;28;899;-85
2022/01/04 06:23:24;;;;;;;;;;;;;;;7.29;84.92;98536.16;4996591;28;985;-85
2022/01/04 06:25:51;;;;;;;;;;;;;;;7.27;85.05;98539.19;4997537;28;1894;-85
2022/01/04 06:28:16;;;;;;;;;;;;;;;7.24;85.25;98537.06;5000400;28;1875;-85
2022/01/04 06:30:41;;;;;;;;;;;;;;;7.21;85.39;98540.41;5015583;28;1275;-84
2022/01/04 06:33:07;;;;;;;;;;;;;;;7.23;85.44;98535.44;5014619;28;1365;-85
2022/01/04 06:35:37;;;;;;;;;;;;;;;7.26;85.39;98531.31;4999611;28;1757;-85
2022/01/04 06:38:02;;;;;;;;;;;;;;;7.18;85.25;98532.84;5005890;28;1774;-85
2022/01/04 06:40:27;;;;;;;;;;;;;;;7.08;85.92;98531.16;5000178;28;1754;-85
2022/01/04 06:42:52;;;;;;;;;;;;;;;7.10;85.54;98515.34;4993868;28;1291;-85
2022/01/04 06:45:18;;;;;;;;;;;;;;;7.16;85.83;98514.09;4993680;28;1952;-85
2022/01/04 06:47:43;;;;;;;;;;;;;;;7.24;86.03;98504.41;4994890;28;1209;-85
2022/01/04 06:50:08;;;;;;;;;;;;;;;7.24;85.99;98501.69;4993436;28;1391;-86
2022/01/04 06:52:33;;;;;;;;;;;;;;;7.20;86.17;98496.06;5003516;28;1445;-85
2022/01/04 06:54:59;;;;;;;;;;;;;;;7.17;86.25;98496.69;4998370;28;1460;-86
2022/01/04 06:57:24;;;;;;;;;;;;;;;7.21;86.28;98496.88;5001141;28;1771;-85
2022/01/04 06:59:49;;;;;;;;;;;;;;;7.21;86.13;98500.41;4995259;28;835;-87
2022/01/04 07:02:14;;;;;;;;;;;;;;;7.23;86.25;98491.91;5011969;28;1762;-89
2022/01/04 07:04:39;;;;;;;;;;;;;;;7.27;86.21;98494.84;5013267;28;1898;-88
2022/01/04 07:07:04;;;;;;;;;;;;;;;7.27;85.99;98492.91;5013202;28;1300;-89
2022/01/04 07:09:30;;;;;;;;;;;;;;;7.22;86.31;98485.69;5004762;28;1555;-89
2022/01/04 07:11:55;;;;;;;;;;;;;;;7.16;86.17;98478.75;4993961;28;1222;-89
2022/01/04 07:14:20;;;;;;;;;;;;;;;7.09;86.32;98483.81;5009631;28;1177;-89
2022/01/04 07:16:45;;;;;;;;;;;;;;;7.03;86.71;98484.22;4993555;28;1277;-87
2022/01/04 07:19:10;;;;;;;;;;;;;;;7.07;86.43;98482.50;5003546;28;1822;-89
2022/01/04 07:21:36;;;;;;;;;;;;;;;7.06;86.07;98478.97;5001225;28;1765;-89
2022/01/04 07:24:02;;;;;;;;;;;;;;;7.01;86.51;98470.94;4997943;28;1873;-87
2022/01/04 07:26:28;;;;;;;;;;;;;;;6.99;86.94;98466.91;5007224;28;1894;-86
2022/01/04 07:28:53;;;;;;;;;;;;;;;7.01;86.71;98462.78;4996169;28;1674;-87
2022/01/04 07:31:19;;;;;;;;;;;;;;;7.03;86.92;98463.28;4994893;28;930;-87
2022/01/04 07:33:45;;;;;;;;;;;;;;;7.03;86.62;98463.28;4993268;28;1296;-88
2022/01/04 07:36:10;;;;;;;;;;;;;;;7.05;86.46;98452.09;4993407;28;1315;-88
2022/01/04 07:38:36;;;;;;;;;;;;;;;7.03;86.84;98444.25;4993166;28;1257;-87
2022/01/04 07:41:02;;;;;;;;;;;;;;;7.06;86.40;98459.91;4993630;28;1270;-87
2022/01/04 07:43:27;;;;;;;;;;;;;;;7.05;86.28;98450.19;5013151;28;1200;-87
2022/01/04 07:45:53;;;;;;;;;;;;;;;7.02;86.76;98447.25;5033683;28;1955;-87
2022/01/04 07:48:18;;;;;;;;;;;;;;;7.01;86.74;98457.34;5012996;28;1848;-88
2022/01/04 07:50:43;;;;;;;;;;;;;;;6.83;86.87;98459.09;5013878;28;807;-88
2022/01/04 07:53:08;;;;;;;;;;;;;;;6.84;86.52;98457.19;5012917;28;1365;-88
2022/01/04 07:55:34;;;;;;;;;;;;;;;6.76;87.17;98453.28;5013168;28;1158;-88
2022/01/04 07:57:59;;;;;;;;;;;;;;;6.87;87.20;98456.56;5001157;28;1282;-90
2022/01/04 08:00:25;;;;;;;;;;;;;;;6.97;87.17;98456.34;5005734;28;1794;-88
2022/01/04 08:02:50;;;;;;;;;;;;;;;6.98;86.99;98451.69;5012886;28;1220;-86
2022/01/04 08:05:15;;;;;;;;;;;;;;;6.95;86.79;98452.31;5005120;28;1971;-88
2022/01/04 08:07:41;;;;;;;;;;;;;;;6.97;87.13;98445.47;4992869;28;1209;-88
2022/01/04 08:10:06;;;;;;;;;;;;;;;7.04;86.83;98448.56;5005802;28;1329;-88
2022/01/04 08:12:31;;;;;;;;;;;;;;;7.06;86.56;98451.75;5012540;28;1252;-88
2022/01/04 08:14:56;;;;;;;;;;;;;;;7.09;86.35;98456.59;5012556;28;1254;-89
2022/01/04 08:17:22;;;;;;;;;;;;;;;7.00;86.31;98453.00;4992872;28;1254;-88
2022/01/04 08:19:47;;;;;;;;;;;;;;;6.84;87.08;98462.63;5008316;28;1334;-88
2022/01/04 08:22:12;;;;;;;;;;;;;;;6.87;86.88;98456.56;4993959;28;1040;-88
2022/01/04 08:24:37;;;;;;;;;;;;;;;6.93;86.70;98468.13;4992859;28;1903;-88
2022/01/04 08:27:02;;;;;;;;;;;;;;;6.92;86.88;98463.81;5002709;28;1496;-88
2022/01/04 08:29:29;;;;;;;;;;;;;;;6.93;86.47;98457.25;5000270;28;1810;-88
2022/01/04 08:31:54;;;;;;;;;;;;;;;6.88;86.94;98452.75;4997931;28;1824;-88
2022/01/04 08:34:19;;;;;;;;;;;;;;;6.84;86.34;98449.00;4999109;28;1770;-88
2022/01/04 08:36:44;;;;;;;;;;;;;;;6.89;86.33;98454.31;5017319;28;1311;-87
2022/01/04 08:39:14;;;;;;;;;;;;;;;7.01;85.63;98443.72;5015267;28;1547;-88
2022/01/04 08:41:40;;;;;;;;;;;;;;;7.07;85.97;98450.66;5017338;28;877;-88
2022/01/04 08:44:06;;;;;;;;;;;;;;;7.10;85.99;98450.06;5016090;28;1185;-88
2022/01/04 08:46:32;;;;;;;;;;;;;;;7.01;86.02;98442.94;5016695;28;1906;-87
2022/01/04 08:48:57;;;;;;;;;;;;;;;7.01;85.39;98442.94;5014959;28;1467;-88
2022/01/04 08:51:22;;;;;;;;;;;;;;;7.06;85.31;98437.38;4996288;28;994;-87
2022/01/04 08:53:48;;;;;;;;;;;;;;;7.11;85.44;98435.34;4996237;28;1002;-87
2022/01/04 08:56:15;;;;;;;;;;;;;;;7.14;85.20;98425.78;4997427;28;811;-87
2022/01/04 08:58:40;;;;;;;;;;;;;;;7.16;85.10;98418.88;4995845;28;1319;-88
2022/01/04 09:01:05;;;;;;;;;;;;;;;7.20;85.66;98416.38;5013840;28;1508;-87
2022/01/04 09:03:31;;;;;;;;;;;;;;;7.22;85.49;98422.31;5015666;28;1213;-88
2022/01/04 09:05:56;;;;;;;;;;;;;;;7.15;85.50;98422.72;5015613;28;1961;-87
2022/01/04 09:08:21;;;;;;;;;;;;;;;7.20;85.50;98425.31;5014868;28;1413;-88
2022/01/04 09:10:46;;;;;;;;;;;;;;;7.20;85.21;98416.38;4999965;28;1535;-88
2022/01/04 09:13:20;;;;;;;;;;;;;;;7.22;85.26;98412.22;4995604;28;1308;-88
2022/01/04 09:21:11;;;;;;;;;;;;;;;7.24;84.92;98420.06;5014616;28;1491;-88
2022/01/04 09:23:36;;;;;;;;;;;;;;;7.25;84.69;98415.41;5014843;28;1180;-87
2022/01/04 09:26:01;;;;;;;;;;;;;;;7.17;84.79;98423.22;5014879;28;1949;-87
2022/01/04 09:28:27;;;;;;;;;;;;;;;7.19;84.35;98421.00;5014583;28;1271;-87
2022/01/04 09:30:52;;;;;;;;;;;;;;;7.22;84.67;98425.03;4999002;28;1495;-86
2022/01/04 09:33:18;;;;;;;;;;;;;;;7.26;84.50;98417.03;4995123;28;1208;-88
2022/01/04 09:35:44;;;;;;;;;;;;;;;7.28;84.24;98417.53;4995028;28;1331;-88
2022/01/04 09:38:09;;;;;;;;;;;;;;;7.28;84.38;98412.09;4995690;28;1256;-88
2022/01/04 09:40:35;;;;;;;;;;;;;;;7.29;83.96;98406.34;5007734;28;1524;-87
2022/01/04 09:43:04;;;;;;;;;;;;;;;7.28;83.70;98398.50;5014562;28;1193;-87
2022/01/04 09:45:29;;;;;;;;;;;;;;;7.28;83.65;98399.28;5014618;28;1894;-87
2022/01/04 09:47:55;;;;;;;;;;;;;;;7.31;83.24;98408.75;5015558;28;1288;-87
2022/01/04 09:50:20;;;;;;;;;;;;;;;7.29;83.37;98413.69;5003571;28;1503;-88
2022/01/04 09:52:49;;;;;;;;;;;;;;;7.27;82.91;98399.59;4994863;28;1313;-87
2022/01/04 09:55:15;;;;;;;;;;;;;;;7.25;83.52;98408.06;4994867;28;1204;-88
2022/01/04 09:57:41;;;;;;;;;;;;;;;7.20;82.99;98406.28;4995170;28;1475;-88
2022/01/04 10:00:07;;;;;;;;;;;;;;;7.22;83.03;98400.53;4995873;28;859;-88
2022/01/04 10:02:32;;;;;;;;;;;;;;;7.23;83.17;98397.47;4995268;28;1173;-88
2022/01/04 10:05:14;;;;;;;;;;;;;;;7.24;82.83;98390.13;5012025;28;1898;-87
2022/01/04 13:05:58;;;;;;;;;;;;;;;7.51;81.51;98283.00;5015434;28;1859;-91
2022/01/04 13:08:26;;;;;;;;;;;;;;;7.51;81.19;98299.34;5046363;28;1310;-91
2022/01/04 13:11:04;;;;;;;;;;;;;;;7.55;81.20;98297.63;5035703;28;1250;-90
2022/01/04 13:13:30;;;;;;;;;;;;;;;7.53;80.70;98299.84;5035298;28;1322;-91
2022/01/04 13:15:56;;;;;;;;;;;;;;;7.54;80.41;98301.44;5035501;28;1290;-91
2022/01/04 13:18:28;;;;;;;;;;;;;;;7.54;80.60;98299.53;5035529;28;1295;-91
2022/01/04 13:20:53;;;;;;;;;;;;;;;7.55;80.63;98300.34;5035996;28;1116;-91
2022/01/04 13:23:23;;;;;;;;;;;;;;;7.54;80.52;98301.44;5039878;28;1084;-91
2022/01/04 13:25:57;;;;;;;;;;;;;;;7.50;80.69;98297.75;5061046;28;1954;-91
2022/01/04 13:28:22;;;;;;;;;;;;;;;7.52;80.52;98292.78;5059000;28;1326;-91
2022/01/04 13:30:48;;;;;;;;;;;;;;;7.43;80.92;98290.03;5038075;28;823;-91
2022/01/04 13:33:21;;;;;;;;;;;;;;;7.41;80.57;98296.91;5038171;28;1187;-91
2022/01/04 13:35:48;;;;;;;;;;;;;;;7.45;80.47;98297.88;5044255;28;1162;-91
2022/01/04 13:38:17;;;;;;;;;;;;;;;7.43;80.45;98300.13;5043379;28;1236;-91
2022/01/04 13:40:43;;;;;;;;;;;;;;;7.49;80.51;98298.84;5054184;28;1259;-91
2022/01/04 13:43:12;;;;;;;;;;;;;;;7.48;80.89;98291.81;5058521;28;1480;-91
2022/01/04 13:45:44;;;;;;;;;;;;;;;7.49;80.80;98293.41;5054353;28;1906;-91
2022/01/04 13:48:09;;;;;;;;;;;;;;;7.52;80.56;98285.44;5035389;28;1302;-93
2022/01/04 13:50:35;;;;;;;;;;;;;;;7.54;80.30;98276.94;5035282;28;1199;-92
2022/01/04 13:53:05;;;;;;;;;;;;;;;7.51;80.93;98266.69;5035201;28;1271;-92
2022/01/04 13:55:47;;;;;;;;;;;;;;;7.50;81.01;98270.53;5034730;28;1160;-91
2022/01/04 13:58:28;;;;;;;;;;;;;;;7.51;81.04;98261.25;5034652;28;1315;-91
2022/01/04 14:00:54;;;;;;;;;;;;;;;7.51;80.76;98263.97;5034724;28;1376;-91
2022/01/04 14:03:29;;;;;;;;;;;;;;;7.49;80.54;98258.81;5034500;28;1060;-91
2022/01/04 14:05:57;;;;;;;;;;;;;;;7.47;80.64;98263.00;5036523;28;1955;-91
2022/01/04 14:08:45;;;;;;;;;;;;;;;7.46;80.87;98275.81;5034780;28;1273;-92
2022/01/04 14:11:10;;;;;;;;;;;;;;;7.46;80.84;98273.09;5034815;28;1318;-91
2022/01/04 14:13:36;;;;;;;;;;;;;;;7.47;80.49;98277.41;5033810;28;1566;-91
2022/01/04 14:16:05;;;;;;;;;;;;;;;7.47;80.85;98276.63;5034152;28;1322;-91
2022/01/04 14:18:30;;;;;;;;;;;;;;;7.49;81.13;98285.25;5034222;28;1201;-90
2022/01/04 14:20:55;;;;;;;;;;;;;;;7.49;80.67;98282.53;5034124;28;1349;-91
2022/01/04 14:23:30;;;;;;;;;;;;;;;7.45;80.66;98276.13;5035328;28;1033;-91
2022/01/04 14:26:03;;;;;;;;;;;;;;;7.44;80.91;98277.22;5032730;28;1969;-91
2022/01/04 14:28:28;;;;;;;;;;;;;;;7.47;80.28;98287.50;5034091;28;1321;-91
2022/01/04 14:30:53;;;;;;;;;;;;;;;7.46;80.71;98288.59;5034254;28;1199;-91
2022/01/04 14:33:19;;;;;;;;;;;;;;;7.44;80.47;98282.66;5028616;28;1726;-92
2022/01/04 14:35:44;;;;;;;;;;;;;;;7.45;80.26;98289.72;5015743;28;1813;-89
2022/01/04 14:38:09;;;;;;;;;;;;;;;7.43;80.45;98286.50;5040961;28;1287;-89
2022/01/04 14:40:35;;;;;;;;;;;;;;;7.42;80.47;98291.16;5035358;28;1049;-89
2022/01/04 14:43:01;;;;;;;;;;;;;;;7.44;80.48;98301.72;5034496;28;1776;-89
2022/01/04 14:45:26;;;;;;;;;;;;;;;7.41;79.83;98305.88;5033529;28;1906;-88
2022/01/04 14:47:52;;;;;;;;;;;;;;;7.45;80.41;98311.50;5035444;28;1468;-89
2022/01/04 14:50:18;;;;;;;;;;;;;;;7.44;80.16;98318.06;5035187;28;1334;-90
2022/01/04 14:52:43;;;;;;;;;;;;;;;7.46;80.21;98311.19;5035290;28;1797;-90
2022/01/04 14:55:09;;;;;;;;;;;;;;;7.46;79.69;98329.44;5037141;28;1053;-90
2022/01/04 14:57:35;;;;;;;;;;;;;;;7.44;79.80;98340.63;5036373;28;1204;-89
2022/01/04 15:00:03;;;;;;;;;;;;;;;7.47;79.51;98337.28;5035443;28;1443;-89
2022/01/04 15:02:28;;;;;;;;;;;;;;;7.46;79.55;98332.97;5035336;28;1287;-89
2022/01/04 15:04:55;;;;;;;;;;;;;;;7.46;79.27;98324.00;5036776;28;1902;-90
2022/01/04 15:07:21;;;;;;;;;;;;;;;7.43;79.53;98330.06;5031378;28;1707;-90
2022/01/04 15:09:46;;;;;;;;;;;;;;;7.43;79.68;98332.78;5036432;28;1717;-89
2022/01/04 15:12:11;;;;;;;;;;;;;;;7.42;79.49;98320.28;5036603;28;851;-88
2022/01/04 15:14:39;;;;;;;;;;;;;;;7.42;79.58;98317.56;5034975;28;1202;-89
2022/01/04 15:17:12;;;;;;;;;;;;;;;7.42;79.46;98315.63;5033656;28;1690;-90
2022/01/04 15:19:37;;;;;;;;;;;;;;;7.42;79.44;98314.84;5035291;28;858;-89
2022/01/04 15:22:02;;;;;;;;;;;;;;;7.40;79.21;98298.03;5034038;28;1279;-89
2022/01/04 15:24:27;;;;;;;;;;;;;;;7.36;79.39;98305.22;5034696;28;1180;-89
2022/01/04 15:26:52;;;;;;;;;;;;;;;7.34;79.48;98302.00;5034294;28;1890;-89
2022/01/04 15:29:18;;;;;;;;;;;;;;;7.35;79.81;98303.59;5026467;28;1714;-89
2022/01/04 15:31:43;;;;;;;;;;;;;;;7.36;79.40;98302.50;5018047;28;1777;-88
2022/01/04 15:34:08;;;;;;;;;;;;;;;7.34;79.64;98312.88;5034210;28;1292;-89
2022/01/04 15:36:33;;;;;;;;;;;;;;;7.30;80.00;98317.34;5034202;28;1487;-90
2022/01/04 15:38:59;;;;;;;;;;;;;;;7.27;80.25;98320.69;5034869;28;1239;-89
2022/01/04 15:41:25;;;;;;;;;;;;;;;7.27;80.07;98332.38;5034352;28;1145;-90
2022/01/04 15:43:50;;;;;;;;;;;;;;;7.22;80.45;98344.22;5034761;28;1316;-88
2022/01/04 15:46:15;;;;;;;;;;;;;;;7.19;80.39;98339.38;5034848;28;2011;-89
2022/01/04 15:48:40;;;;;;;;;;;;;;;7.22;80.78;98362.44;5034698;28;1273;-89
2022/01/04 15:51:06;;;;;;;;;;;;;;;7.24;80.76;98354.75;5034405;28;1073;-89
2022/01/04 15:53:31;;;;;;;;;;;;;;;7.27;80.05;98350.63;5034453;28;1081;-88
2022/01/04 15:55:56;;;;;;;;;;;;;;;7.27;80.24;98348.69;5034944;28;1210;-90
2022/01/04 15:58:23;;;;;;;;;;;;;;;7.27;80.58;98342.44;5033977;28;1369;-89
2022/01/04 16:00:48;;;;;;;;;;;;;;;7.30;80.38;98352.72;5033986;28;1200;-89
2022/01/04 16:03:14;;;;;;;;;;;;;;;7.27;80.90;98343.25;5034007;28;1171;-88
2022/01/04 16:05:39;;;;;;;;;;;;;;;7.29;80.49;98351.13;5034597;28;1902;-88
2022/01/04 16:08:04;;;;;;;;;;;;;;;7.30;80.68;98353.53;5041808;23;2088;-86
2022/01/04 16:10:30;;;;;;;;;;;;;;;7.29;80.64;98354.66;5007888;28;1670;-87